<?xml version="1.0" encoding="UTF-8" standalone="no" ?>
<gpx xmlns="http://www.topografix.com/GPX/1/1" xmlns:xsi="http://www.w3.org/2001/XMLSchema-instance" xsi:schemaLocation="http://www.topografix.com/GPX/1/1 http://www.topografix.com/GPX/1/1/gpx.xsd" version="1.1" creator="VisuGPX - https://www.visugpx.com">
  <metadata>
    <name>De Rambouillet à Gazeran via le GR1 </name>
  </metadata>
  <trk>
    <name><![CDATA[GR1 De Rambouillet à Feucherolles (Yvelines) (2019)]]></name>
    <trkseg>
      <trkpt lat="48.64265" lon="1.82806">
        <ele>158.085</ele>
        <time>2017-03-12T17:12:45Z</time>
      </trkpt>
      <trkpt lat="48.64265" lon="1.82806">
        <ele>158.085</ele>
        <time>2017-03-12T17:12:45Z</time>
      </trkpt>
      <trkpt lat="48.64287" lon="1.82715">
        <ele>157.089</ele>
        <time>2017-03-12T17:13:05Z</time>
      </trkpt>
      <trkpt lat="48.64306" lon="1.82604">
        <ele>153.017</ele>
        <time>2017-03-12T17:13:25Z</time>
      </trkpt>
      <trkpt lat="48.64292" lon="1.82574">
        <ele>152.008</ele>
        <time>2017-03-12T17:13:45Z</time>
      </trkpt>
      <trkpt lat="48.64297" lon="1.82563">
        <ele>152.051</ele>
        <time>2017-03-12T17:14:05Z</time>
      </trkpt>
      <trkpt lat="48.6427" lon="1.82496">
        <ele>153.082</ele>
        <time>2017-03-12T17:14:25Z</time>
      </trkpt>
      <trkpt lat="48.64267" lon="1.82469">
        <ele>153.066</ele>
        <time>2017-03-12T17:14:45Z</time>
      </trkpt>
      <trkpt lat="48.64239" lon="1.82501">
        <ele>153.05</ele>
        <time>2017-03-12T17:15:05Z</time>
      </trkpt>
      <trkpt lat="48.64206" lon="1.82512">
        <ele>152.084</ele>
        <time>2017-03-12T17:15:25Z</time>
      </trkpt>
      <trkpt lat="48.64177" lon="1.82508">
        <ele>151.022</ele>
        <time>2017-03-12T17:15:45Z</time>
      </trkpt>
      <trkpt lat="48.64149" lon="1.8247">
        <ele>150.014</ele>
        <time>2017-03-12T17:16:05Z</time>
      </trkpt>
      <trkpt lat="48.64137" lon="1.82425">
        <ele>150.04</ele>
        <time>2017-03-12T17:16:25Z</time>
      </trkpt>
      <trkpt lat="48.64145" lon="1.82365">
        <ele>150.095</ele>
        <time>2017-03-12T17:16:45Z</time>
      </trkpt>
      <trkpt lat="48.64234" lon="1.82179">
        <ele>149.049</ele>
        <time>2017-03-12T17:17:05Z</time>
      </trkpt>
      <trkpt lat="48.64216" lon="1.82156">
        <ele>149.023</ele>
        <time>2017-03-12T17:17:25Z</time>
      </trkpt>
      <trkpt lat="48.64229" lon="1.82125">
        <ele>148.008</ele>
        <time>2017-03-12T17:17:45Z</time>
      </trkpt>
      <trkpt lat="48.63977" lon="1.81801">
        <ele>151.072</ele>
        <time>2017-03-12T17:18:05Z</time>
      </trkpt>
      <trkpt lat="48.64152" lon="1.81431">
        <ele>150.043</ele>
        <time>2017-03-12T17:18:25Z</time>
      </trkpt>
      <trkpt lat="48.64146" lon="1.81424">
        <ele>150.087</ele>
        <time>2017-03-12T17:18:45Z</time>
      </trkpt>
      <trkpt lat="48.6415" lon="1.81413">
        <ele>149.061</ele>
        <time>2017-03-12T17:19:05Z</time>
      </trkpt>
      <trkpt lat="48.64142" lon="1.81381">
        <ele>150.015</ele>
        <time>2017-03-12T17:19:25Z</time>
      </trkpt>
      <trkpt lat="48.64146" lon="1.81349">
        <ele>150.063</ele>
        <time>2017-03-12T17:19:45Z</time>
      </trkpt>
      <trkpt lat="48.64159" lon="1.81331">
        <ele>149.065</ele>
        <time>2017-03-12T17:20:05Z</time>
      </trkpt>
      <trkpt lat="48.64176" lon="1.81326">
        <ele>148.051</ele>
        <time>2017-03-12T17:20:25Z</time>
      </trkpt>
      <trkpt lat="48.64187" lon="1.81331">
        <ele>148.094</ele>
        <time>2017-03-12T17:20:45Z</time>
      </trkpt>
      <trkpt lat="48.64194" lon="1.81322">
        <ele>148.057</ele>
        <time>2017-03-12T17:21:05Z</time>
      </trkpt>
      <trkpt lat="48.64199" lon="1.81328">
        <ele>148.022</ele>
        <time>2017-03-12T17:21:25Z</time>
      </trkpt>
      <trkpt lat="48.64473" lon="1.80736">
        <ele>151.008</ele>
        <time>2017-03-12T17:21:45Z</time>
      </trkpt>
      <trkpt lat="48.64299" lon="1.80303">
        <ele>149.052</ele>
        <time>2017-03-12T17:22:05Z</time>
      </trkpt>
      <trkpt lat="48.64185" lon="1.8004">
        <ele>150.023</ele>
        <time>2017-03-12T17:22:25Z</time>
      </trkpt>
      <trkpt lat="48.63936" lon="1.79555">
        <ele>152.027</ele>
        <time>2017-03-12T17:22:45Z</time>
      </trkpt>
      <trkpt lat="48.63837" lon="1.79434">
        <ele>148.031</ele>
        <time>2017-03-12T17:23:05Z</time>
      </trkpt>
      <trkpt lat="48.63814" lon="1.7942">
        <ele>146.025</ele>
        <time>2017-03-12T17:23:25Z</time>
      </trkpt>
      <trkpt lat="48.63766" lon="1.79275">
        <ele>147.083</ele>
        <time>2017-03-12T17:23:45Z</time>
      </trkpt>
      <trkpt lat="48.63757" lon="1.79229">
        <ele>149.095</ele>
        <time>2017-03-12T17:24:05Z</time>
      </trkpt>
      <trkpt lat="48.63748" lon="1.79231">
        <ele>148.071</ele>
        <time>2017-03-12T17:24:25Z</time>
      </trkpt>
      <trkpt lat="48.6371" lon="1.79154">
        <ele>151.071</ele>
        <time>2017-03-12T17:24:45Z</time>
      </trkpt>
      <trkpt lat="48.63659" lon="1.79082">
        <ele>151.041</ele>
        <time>2017-03-12T17:25:05Z</time>
      </trkpt>
      <trkpt lat="48.6363" lon="1.79036">
        <ele>151.015</ele>
        <time>2017-03-12T17:25:25Z</time>
      </trkpt>
      <trkpt lat="48.63596" lon="1.78992">
        <ele>151.008</ele>
        <time>2017-03-12T17:25:45Z</time>
      </trkpt>
      <trkpt lat="48.63566" lon="1.78967">
        <ele>149.01</ele>
        <time>2017-03-12T17:26:05Z</time>
      </trkpt>
      <trkpt lat="48.63541" lon="1.78956">
        <ele>148.051</ele>
        <time>2017-03-12T17:26:25Z</time>
      </trkpt>
      <trkpt lat="48.6348" lon="1.78946">
        <ele>146.055</ele>
        <time>2017-03-12T17:26:45Z</time>
      </trkpt>
      <trkpt lat="48.63469" lon="1.78898">
        <ele>146.099</ele>
        <time>2017-03-12T17:27:05Z</time>
      </trkpt>
      <trkpt lat="48.63464" lon="1.7881">
        <ele>147.063</ele>
        <time>2017-03-12T17:27:25Z</time>
      </trkpt>
      <trkpt lat="48.63491" lon="1.78715">
        <ele>149.071</ele>
        <time>2017-03-12T17:27:45Z</time>
      </trkpt>
      <trkpt lat="48.6351" lon="1.78632">
        <ele>149.033</ele>
        <time>2017-03-12T17:28:05Z</time>
      </trkpt>
      <trkpt lat="48.6352" lon="1.78535">
        <ele>153.089</ele>
        <time>2017-03-12T17:28:25Z</time>
      </trkpt>
      <trkpt lat="48.63518" lon="1.78456">
        <ele>159.012</ele>
        <time>2017-03-12T17:28:45Z</time>
      </trkpt>
      <trkpt lat="48.63507" lon="1.78311">
        <ele>167.032</ele>
        <time>2017-03-12T17:29:05Z</time>
      </trkpt>
      <trkpt lat="48.63513" lon="1.78241">
        <ele>167.005</ele>
        <time>2017-03-12T17:29:25Z</time>
      </trkpt>
      <trkpt lat="48.63529" lon="1.78083">
        <ele>166.008</ele>
        <time>2017-03-12T17:29:45Z</time>
      </trkpt>
      <trkpt lat="48.63535" lon="1.78051">
        <ele>166.014</ele>
        <time>2017-03-12T17:30:05Z</time>
      </trkpt>
      <trkpt lat="48.63573" lon="1.77959">
        <ele>163.065</ele>
        <time>2017-03-12T17:30:25Z</time>
      </trkpt>
      <trkpt lat="48.63605" lon="1.77907">
        <ele>160.019</ele>
        <time>2017-03-12T17:30:45Z</time>
      </trkpt>
      <trkpt lat="48.6363" lon="1.77863">
        <ele>158.063</ele>
        <time>2017-03-12T17:31:05Z</time>
      </trkpt>
      <trkpt lat="48.63651" lon="1.77801">
        <ele>155.097</ele>
        <time>2017-03-12T17:31:25Z</time>
      </trkpt>
      <trkpt lat="48.6369" lon="1.77625">
        <ele>149.095</ele>
        <time>2017-03-12T17:31:45Z</time>
      </trkpt>
      <trkpt lat="48.63705" lon="1.77588">
        <ele>148.067</ele>
        <time>2017-03-12T17:32:05Z</time>
      </trkpt>
      <trkpt lat="48.6382" lon="1.77409">
        <ele>143.083</ele>
        <time>2017-03-12T17:32:25Z</time>
      </trkpt>
      <trkpt lat="48.63843" lon="1.77404">
        <ele>144.028</ele>
        <time>2017-03-12T17:32:45Z</time>
      </trkpt>
      <trkpt lat="48.63848" lon="1.77307">
        <ele>144.089</ele>
        <time>2017-03-12T17:33:05Z</time>
      </trkpt>
      <trkpt lat="48.63782" lon="1.77314">
        <ele>142.4</ele>
      </trkpt>
      <trkpt lat="48.63715" lon="1.7733">
        <ele>141.4</ele>
      </trkpt>
      <trkpt lat="48.63665" lon="1.77386">
        <ele>140.5</ele>
      </trkpt>
      <trkpt lat="48.6362" lon="1.77458">
        <ele>140.7</ele>
      </trkpt>
      <trkpt lat="48.63586" lon="1.77498">
        <ele>141</ele>
      </trkpt>
      <trkpt lat="48.63546" lon="1.77526">
        <ele>141.7</ele>
      </trkpt>
      <trkpt lat="48.6349" lon="1.77518">
        <ele>140.2</ele>
      </trkpt>
      <trkpt lat="48.63446" lon="1.77462">
        <ele>140.4</ele>
      </trkpt>
      <trkpt lat="48.63406" lon="1.77386">
        <ele>142.3</ele>
      </trkpt>
      <trkpt lat="48.63395" lon="1.7733">
        <ele>146.9</ele>
      </trkpt>
      <trkpt lat="48.63401" lon="1.77266">
        <ele>150.2</ele>
      </trkpt>
      <trkpt lat="48.63398" lon="1.7719">
        <ele>155.2</ele>
      </trkpt>
      <trkpt lat="48.63382" lon="1.7715">
        <ele>156.4</ele>
      </trkpt>
      <trkpt lat="48.63356" lon="1.7715">
        <ele>157.3</ele>
      </trkpt>
      <trkpt lat="48.63305" lon="1.77182">
        <ele>158.6</ele>
      </trkpt>
      <trkpt lat="48.6325" lon="1.77222">
        <ele>158.5</ele>
      </trkpt>
      <trkpt lat="48.63205" lon="1.77234">
        <ele>159</ele>
      </trkpt>
      <trkpt lat="48.63133" lon="1.77242">
        <ele>161.2</ele>
      </trkpt>
      <trkpt lat="48.63035" lon="1.77242">
        <ele>163.4</ele>
      </trkpt>
      <trkpt lat="48.62902" lon="1.77256">
        <ele>165</ele>
      </trkpt>
      <trkpt lat="48.6283" lon="1.77252">
        <ele>165</ele>
      </trkpt>
      <trkpt lat="48.62767" lon="1.77252">
        <ele>165</ele>
      </trkpt>
      <trkpt lat="48.62666" lon="1.77248">
        <ele>165</ele>
      </trkpt>
      <trkpt lat="48.62616" lon="1.77256">
        <ele>165</ele>
      </trkpt>
    </trkseg>
  </trk>
</gpx>